createdAt,value
2018-07-03T00:02:17.249Z,17.10
2018-07-03T00:04:48.321Z,17.10
2018-07-03T00:07:20.177Z,17.10
2018-07-03T00:09:51.034Z,17.10
2018-07-03T00:12:23.592Z,17.10
2018-07-03T00:14:56.801Z,17.10
2018-07-03T00:17:27.946Z,17.10
2018-07-03T00:19:59.996Z,17.10
2018-07-03T00:22:31.595Z,17.00
2018-07-03T00:25:03.355Z,17.00
2018-07-03T00:27:33.363Z,17.10
2018-07-03T00:32:34.802Z,17.00
2018-07-03T00:35:05.547Z,16.90
2018-07-03T00:37:36.522Z,16.90
2018-07-03T00:40:11.556Z,16.90
2018-07-03T00:47:43.210Z,16.90
2018-07-03T00:50:14.994Z,16.90
2018-07-03T00:52:47.189Z,16.90
2018-07-03T00:55:18.886Z,16.90
2018-07-03T00:57:50.552Z,16.90
2018-07-03T01:00:32.004Z,16.80
2018-07-03T01:03:04.232Z,16.70
2018-07-03T01:05:36.223Z,16.70
2018-07-03T01:08:06.719Z,16.70
2018-07-03T01:10:37.668Z,16.60
2018-07-03T01:13:11.145Z,16.70
2018-07-03T01:15:43.250Z,16.70
2018-07-03T01:18:14.810Z,16.60
2018-07-03T01:20:45.490Z,16.50
2018-07-03T01:23:16.336Z,16.50
2018-07-03T01:25:47.457Z,16.60
2018-07-03T01:30:51.336Z,16.50
2018-07-03T01:33:23.374Z,16.50
2018-07-03T01:35:54.284Z,16.50
2018-07-03T01:38:25.473Z,16.50
2018-07-03T01:40:56.609Z,16.40
2018-07-03T01:43:29.105Z,16.40
2018-07-03T01:46:01.244Z,16.40
2018-07-03T01:48:32.104Z,16.30
2018-07-03T01:51:03.429Z,16.40
2018-07-03T01:53:36.853Z,16.40
2018-07-03T01:56:08.787Z,16.30
2018-07-03T01:58:39.851Z,16.20
2018-07-03T02:01:11.252Z,16.20
2018-07-03T02:03:42.458Z,16.20
2018-07-03T02:06:12.975Z,16.20
2018-07-03T02:08:43.279Z,16.20
2018-07-03T02:11:14.452Z,16.10
2018-07-03T02:13:45.663Z,16.00
2018-07-03T02:16:19.473Z,16.00
2018-07-03T02:18:50.179Z,16.00
2018-07-03T02:21:22.095Z,16.00
2018-07-03T02:23:52.835Z,15.90
2018-07-03T02:26:23.706Z,15.90
2018-07-03T02:28:54.587Z,15.80
2018-07-03T02:31:25.127Z,15.80
2018-07-03T02:33:55.838Z,15.80
2018-07-03T02:36:26.138Z,15.70
2018-07-03T02:38:57.659Z,15.70
2018-07-03T02:41:28.421Z,15.70
2018-07-03T02:43:58.659Z,15.60
2018-07-03T02:46:28.725Z,15.60
2018-07-03T02:48:58.961Z,15.60
2018-07-03T02:51:29.287Z,15.60
2018-07-03T02:54:00.242Z,15.50
2018-07-03T02:56:31.683Z,15.50
2018-07-03T02:59:02.560Z,15.50
2018-07-03T03:01:32.738Z,15.50
2018-07-03T03:04:05.076Z,15.50
2018-07-03T03:06:37.658Z,15.50
2018-07-03T03:11:52.838Z,15.50
2018-07-03T03:14:28.699Z,15.50
2018-07-03T03:17:03.496Z,15.60
2018-07-03T03:19:37.964Z,15.70
2018-07-03T03:22:08.949Z,15.60
2018-07-03T03:24:40.210Z,15.60
2018-07-03T03:27:11.815Z,15.60
2018-07-03T03:29:43.367Z,15.60
2018-07-03T03:32:14.680Z,15.60
2018-07-03T03:34:46.327Z,15.60
2018-07-03T03:37:18.729Z,15.70
2018-07-03T03:39:50.135Z,15.70
2018-07-03T03:42:21.631Z,15.70
2018-07-03T03:44:52.595Z,15.80
2018-07-03T03:47:24.079Z,15.80
2018-07-03T03:49:54.769Z,15.90
2018-07-03T03:52:27.321Z,15.90
2018-07-03T03:54:57.988Z,16.00
2018-07-03T03:57:28.466Z,16.00
2018-07-03T03:59:59.628Z,16.00
2018-07-03T04:02:32.769Z,16.00
2018-07-03T04:05:03.789Z,16.00
2018-07-03T04:07:35.729Z,16.10
2018-07-03T04:10:06.365Z,16.10
2018-07-03T04:12:36.422Z,16.20
2018-07-03T04:15:08.638Z,16.20
2018-07-03T04:17:39.782Z,16.30
2018-07-03T04:20:11.055Z,16.40
2018-07-03T04:22:42.757Z,16.50
2018-07-03T04:25:13.141Z,16.60
2018-07-03T04:27:44.959Z,16.70
2018-07-03T04:30:17.159Z,16.80
2018-07-03T04:32:48.754Z,17.00
2018-07-03T04:35:19.756Z,17.00
2018-07-03T04:37:50.157Z,17.10
2018-07-03T04:40:21.130Z,17.10
2018-07-03T04:42:52.871Z,17.30
2018-07-03T04:45:24.797Z,17.30
2018-07-03T04:47:56.115Z,17.30
2018-07-03T04:50:27.991Z,17.30
2018-07-03T04:52:58.839Z,17.30
2018-07-03T04:55:30.467Z,17.40
2018-07-03T04:58:01.541Z,17.50
2018-07-03T05:00:31.949Z,17.50
2018-07-03T05:03:02.770Z,17.60
2018-07-03T05:05:34.384Z,17.70
2018-07-03T05:08:04.798Z,17.70
2018-07-03T05:10:35.011Z,17.80
2018-07-03T05:13:06.760Z,17.80
2018-07-03T05:15:40.046Z,18.00
2018-07-03T05:18:10.296Z,18.00
2018-07-03T05:20:40.139Z,18.10
2018-07-03T05:23:10.754Z,18.20
2018-07-03T05:25:40.938Z,18.30
2018-07-03T05:28:11.283Z,18.30
2018-07-03T05:30:42.196Z,18.40
2018-07-03T05:33:13.671Z,18.40
2018-07-03T05:35:44.029Z,18.60
2018-07-03T05:38:13.891Z,18.60
2018-07-03T05:40:43.959Z,19.00
2018-07-03T05:43:14.823Z,19.20
2018-07-03T05:45:45.690Z,19.80
2018-07-03T05:48:15.465Z,20.70
2018-07-03T05:50:52.104Z,21.20
2018-07-03T05:53:22.522Z,21.50
2018-07-03T05:55:52.376Z,22.00
2018-07-03T05:58:21.815Z,22.20
2018-07-03T06:00:51.186Z,22.60
2018-07-03T06:03:21.752Z,22.90
2018-07-03T06:05:52.344Z,22.90
2018-07-03T06:08:24.310Z,23.40
2018-07-03T06:10:55.885Z,23.50
2018-07-03T06:13:26.943Z,23.80
2018-07-03T06:15:56.496Z,24.00
2018-07-03T06:18:26.812Z,23.60
2018-07-03T06:23:25.421Z,24.30
2018-07-03T06:25:55.161Z,24.70
2018-07-03T06:28:25.441Z,24.70
2018-07-03T06:30:57.492Z,24.40
2018-07-03T06:33:27.653Z,24.90
2018-07-03T06:35:57.754Z,25.00
2018-07-03T06:38:28.253Z,24.80
2018-07-03T06:40:58.962Z,24.80
2018-07-03T06:43:28.769Z,25.00
2018-07-03T06:45:59.631Z,25.20
2018-07-03T06:48:29.232Z,25.40
2018-07-03T06:50:59.232Z,25.60
2018-07-03T06:53:29.309Z,25.70
2018-07-03T06:55:58.970Z,25.50
2018-07-03T06:58:29.193Z,25.40
2018-07-03T07:00:59.118Z,25.40
2018-07-03T07:03:30.273Z,25.60
2018-07-03T07:06:00.040Z,25.60
2018-07-03T07:08:30.060Z,25.40
2018-07-03T07:11:00.365Z,25.00
2018-07-03T07:13:31.829Z,25.00
2018-07-03T07:16:02.924Z,25.30
2018-07-03T07:18:33.953Z,25.80
2018-07-03T07:21:04.086Z,25.80
2018-07-03T07:23:33.994Z,26.00
2018-07-03T07:26:04.072Z,26.40
2018-07-03T07:28:34.141Z,26.90
2018-07-03T07:31:06.258Z,27.30
2018-07-03T07:33:36.102Z,27.50
2018-07-03T07:36:06.859Z,27.40
2018-07-03T07:38:36.538Z,27.00
2018-07-03T07:41:09.088Z,27.20
2018-07-03T07:43:39.324Z,27.10
2018-07-03T07:46:11.095Z,27.20
2018-07-03T07:48:42.593Z,27.20
2018-07-03T07:51:12.872Z,27.50
2018-07-03T07:53:43.257Z,27.70
2018-07-03T07:56:13.904Z,28.00
2018-07-03T07:58:43.811Z,28.20
2018-07-03T08:01:13.787Z,28.10
2018-07-03T08:03:44.829Z,28.30
2018-07-03T08:06:16.256Z,27.70
2018-07-03T08:08:47.273Z,27.70
2018-07-03T08:11:18.608Z,28.00
2018-07-03T08:13:49.172Z,27.70
2018-07-03T08:16:20.243Z,28.30
2018-07-03T08:18:50.350Z,28.20
2018-07-03T08:21:21.863Z,28.70
2018-07-03T08:23:52.121Z,28.90
2018-07-03T08:26:22.909Z,28.70
2018-07-03T08:28:53.273Z,28.80
2018-07-03T08:31:23.259Z,29.20
2018-07-03T08:33:53.223Z,29.20
2018-07-03T08:36:24.103Z,29.10
2018-07-03T08:38:56.388Z,29.00
2018-07-03T08:41:27.068Z,29.40
2018-07-03T08:43:57.798Z,29.50
2018-07-03T08:46:27.827Z,29.80
2018-07-03T08:48:58.812Z,29.90
2018-07-03T08:51:28.794Z,29.80
2018-07-03T08:53:59.125Z,29.50
2018-07-03T08:56:29.433Z,29.50
2018-07-03T08:58:59.876Z,28.30
2018-07-03T09:01:31.678Z,28.50
2018-07-03T09:04:01.903Z,29.60
2018-07-03T09:06:32.069Z,29.90
2018-07-03T09:09:02.894Z,30.30
2018-07-03T09:11:32.686Z,31.00
2018-07-03T09:19:02.423Z,30.50
2018-07-03T09:21:33.227Z,31.40
2018-07-03T09:24:03.102Z,31.50
2018-07-03T09:26:33.306Z,31.30
2018-07-03T09:29:03.591Z,31.20
2018-07-03T09:31:34.310Z,31.00
2018-07-03T09:34:04.133Z,31.20
2018-07-03T09:36:34.956Z,31.40
2018-07-03T09:39:07.477Z,31.70
2018-07-03T09:41:39.236Z,31.70
2018-07-03T09:44:10.262Z,31.40
2018-07-03T09:46:40.984Z,30.80
2018-07-03T09:49:11.368Z,31.10
2018-07-03T09:51:41.421Z,31.50
2018-07-03T09:54:11.295Z,31.90
2018-07-03T09:56:41.094Z,31.80
2018-07-03T09:59:12.136Z,32.60
2018-07-03T10:01:42.916Z,32.40
2018-07-03T10:04:12.772Z,31.80
2018-07-03T10:09:12.697Z,31.80
2018-07-03T10:11:42.525Z,31.60
2018-07-03T10:14:13.335Z,31.70
2018-07-03T10:16:43.619Z,32.00
2018-07-03T10:19:13.757Z,31.90
2018-07-03T10:21:43.719Z,31.70
2018-07-03T10:24:13.596Z,31.90
2018-07-03T10:26:43.696Z,31.90
2018-07-03T10:29:13.427Z,32.50
2018-07-03T10:31:43.674Z,32.70
2018-07-03T10:36:44.343Z,32.30
2018-07-03T10:39:15.394Z,32.20
2018-07-03T10:41:45.447Z,32.60
2018-07-03T10:44:15.425Z,32.70
2018-07-03T10:46:46.068Z,33.30
2018-07-03T10:49:16.358Z,33.50
2018-07-03T10:51:46.557Z,33.60
2018-07-03T10:54:16.973Z,34.00
2018-07-03T10:56:48.285Z,34.20
2018-07-03T10:59:18.807Z,34.50
2018-07-03T11:01:49.000Z,34.70
2018-07-03T11:04:19.084Z,35.00
2018-07-03T11:11:47.806Z,35.10
2018-07-03T11:14:17.713Z,34.80
2018-07-03T11:16:47.757Z,33.10
2018-07-03T11:19:17.302Z,32.30
2018-07-03T11:21:47.088Z,31.80
2018-07-03T11:24:17.576Z,32.50
2018-07-03T11:29:18.340Z,34.20
2018-07-03T11:31:48.531Z,34.30
2018-07-03T11:34:18.748Z,34.50
2018-07-03T11:36:48.748Z,34.30
2018-07-03T11:39:18.189Z,34.40
2018-07-03T11:41:47.765Z,33.90
2018-07-03T11:44:17.302Z,33.10
2018-07-03T11:46:46.883Z,32.60
2018-07-03T11:49:16.426Z,33.50
2018-07-03T11:51:45.774Z,34.20
2018-07-03T11:54:15.583Z,35.00
2018-07-03T11:56:45.071Z,35.50
2018-07-03T11:59:14.493Z,34.90
2018-07-03T12:01:44.096Z,35.50
2018-07-03T12:04:13.780Z,35.70
2018-07-03T12:06:43.150Z,35.30
2018-07-03T12:09:12.799Z,35.50
2018-07-03T12:11:42.280Z,35.90
2018-07-03T12:14:11.664Z,36.00
2018-07-03T12:16:41.074Z,36.60
2018-07-03T12:19:10.284Z,35.30
2018-07-03T12:21:40.737Z,36.20
2018-07-03T12:24:10.761Z,36.70
2018-07-03T12:26:39.905Z,36.80
2018-07-03T12:29:11.070Z,36.60
2018-07-03T12:31:41.259Z,37.30
2018-07-03T12:34:12.068Z,37.90
2018-07-03T12:36:42.101Z,37.80
2018-07-03T12:39:12.463Z,37.60
2018-07-03T12:41:49.162Z,37.90
2018-07-03T12:44:19.002Z,37.70
2018-07-03T12:46:48.953Z,37.10
2018-07-03T12:49:20.163Z,36.10
2018-07-03T12:51:50.041Z,36.80
2018-07-03T12:54:20.419Z,36.80
2018-07-03T12:56:50.515Z,37.20
2018-07-03T12:59:21.343Z,37.00
2018-07-03T13:01:51.402Z,38.10
2018-07-03T13:04:22.328Z,37.80
2018-07-03T13:06:52.172Z,37.10
2018-07-03T13:09:23.418Z,36.90
2018-07-03T13:11:53.463Z,36.50
2018-07-03T13:14:23.179Z,37.10
2018-07-03T13:16:53.035Z,37.70
2018-07-03T13:19:23.700Z,37.70
2018-07-03T13:21:53.298Z,38.10
2018-07-03T13:24:23.097Z,37.50
2018-07-03T13:26:54.502Z,37.20
2018-07-03T13:29:24.416Z,36.20
2018-07-03T13:31:54.862Z,36.70
2018-07-03T13:34:24.901Z,37.00
2018-07-03T13:36:55.293Z,36.60
2018-07-03T13:39:24.701Z,37.00
2018-07-03T13:41:55.866Z,36.90
2018-07-03T13:44:27.127Z,35.30
2018-07-03T13:46:57.130Z,36.10
2018-07-03T13:51:58.134Z,36.50
2018-07-03T13:54:29.611Z,36.40
2018-07-03T13:57:00.821Z,36.30
2018-07-03T13:59:31.355Z,36.60
2018-07-03T14:02:01.896Z,37.10
2018-07-03T14:04:31.823Z,37.30
2018-07-03T14:07:02.460Z,36.90
2018-07-03T14:09:32.450Z,36.20
2018-07-03T14:12:02.550Z,35.90
2018-07-03T14:14:32.351Z,35.40
2018-07-03T14:17:04.369Z,35.40
2018-07-03T14:19:34.533Z,35.70
2018-07-03T14:22:04.464Z,35.20
2018-07-03T14:27:05.740Z,34.40
2018-07-03T14:29:35.875Z,34.50
2018-07-03T14:32:06.453Z,34.30
2018-07-03T14:34:36.845Z,32.20
2018-07-03T14:37:10.026Z,32.00
2018-07-03T14:39:42.550Z,31.80
2018-07-03T14:42:13.519Z,31.60
2018-07-03T14:44:43.416Z,31.50
2018-07-03T14:47:13.400Z,30.70
2018-07-03T14:49:46.876Z,30.60
2018-07-03T14:52:18.101Z,30.60
2018-07-03T14:54:47.954Z,30.40
2018-07-03T14:57:17.785Z,30.30
2018-07-03T14:59:49.710Z,29.60
2018-07-03T15:02:20.678Z,29.30
2018-07-03T15:04:51.178Z,29.20
2018-07-03T15:07:21.508Z,29.30
2018-07-03T15:09:51.175Z,29.40
2018-07-03T15:12:21.097Z,29.50
2018-07-03T15:14:51.652Z,29.40
2018-07-03T15:17:22.886Z,29.30
2018-07-03T15:19:55.007Z,29.30
2018-07-03T15:22:25.557Z,28.80
2018-07-03T15:24:55.229Z,29.00
2018-07-03T15:27:24.719Z,29.00
2018-07-03T15:29:54.138Z,29.10
2018-07-03T15:32:23.878Z,29.20
2018-07-03T15:34:53.682Z,29.20
2018-07-03T15:37:23.256Z,29.30
2018-07-03T15:39:52.739Z,29.30
2018-07-03T15:42:22.671Z,29.50
2018-07-03T15:45:04.903Z,29.30
2018-07-03T15:50:03.532Z,29.30
2018-07-03T15:52:33.810Z,29.20
2018-07-03T15:55:03.871Z,29.30
2018-07-03T15:57:33.788Z,29.10
2018-07-03T16:00:03.405Z,29.10
2018-07-03T16:02:32.902Z,29.00
2018-07-03T16:05:14.911Z,29.00
2018-07-03T16:08:57.544Z,29.00
2018-07-03T16:11:26.940Z,29.10
2018-07-03T16:13:56.792Z,29.10
2018-07-03T16:16:26.248Z,28.60
2018-07-03T16:18:59.715Z,28.70
2018-07-03T16:21:29.140Z,28.60
2018-07-03T16:23:59.110Z,28.60
2018-07-03T16:26:28.748Z,28.70
2018-07-03T16:28:58.477Z,28.60
2018-07-03T16:31:27.777Z,28.60
2018-07-03T16:33:58.397Z,28.50
2018-07-03T16:36:28.257Z,28.50
2018-07-03T16:38:57.953Z,28.50
2018-07-03T16:41:27.828Z,28.10
2018-07-03T16:46:26.907Z,28.00
2018-07-03T16:48:56.981Z,28.00
2018-07-03T16:51:26.549Z,28.00
2018-07-03T16:53:56.251Z,27.90
2018-07-03T16:56:25.911Z,27.80
2018-07-03T17:02:27.680Z,27.70
2018-07-03T17:04:57.681Z,27.70
2018-07-03T17:07:27.495Z,27.70
2018-07-03T17:09:57.737Z,27.80
2018-07-03T17:12:27.356Z,27.70
2018-07-03T17:15:00.071Z,27.70
2018-07-03T17:17:33.670Z,27.70
2018-07-03T17:20:03.728Z,27.70
2018-07-03T17:22:34.291Z,27.70
2018-07-03T17:25:04.045Z,27.60
2018-07-03T17:27:33.687Z,27.60
2018-07-03T17:30:03.301Z,27.50
2018-07-03T17:32:32.711Z,27.40
2018-07-03T17:35:02.191Z,27.40
2018-07-03T17:37:32.154Z,27.30
2018-07-03T17:40:13.091Z,27.30
2018-07-03T17:42:53.924Z,27.30
2018-07-03T17:45:36.738Z,27.30
2018-07-03T17:48:08.762Z,27.30
2018-07-03T17:50:39.159Z,27.30
2018-07-03T17:53:09.956Z,27.20
2018-07-03T17:55:40.617Z,27.20
2018-07-03T17:58:10.791Z,27.00
2018-07-03T18:00:41.868Z,27.00
2018-07-03T18:03:12.289Z,26.80
2018-07-03T18:05:45.143Z,26.70
2018-07-03T18:08:15.539Z,26.60
2018-07-03T18:10:45.450Z,26.50
2018-07-03T18:13:16.296Z,26.50
2018-07-03T18:15:46.264Z,26.40
2018-07-03T18:18:17.887Z,26.20
2018-07-03T18:20:48.327Z,26.10
2018-07-03T18:23:19.162Z,26.10
2018-07-03T18:25:50.175Z,25.90
2018-07-03T18:28:20.792Z,25.90
2018-07-03T18:30:51.052Z,25.90
2018-07-03T18:33:21.381Z,25.80
2018-07-03T18:35:52.492Z,25.70
2018-07-03T18:38:24.505Z,25.70
2018-07-03T18:40:54.683Z,25.60
2018-07-03T18:43:24.103Z,25.50
2018-07-03T18:45:54.167Z,25.50
2018-07-03T18:48:23.787Z,25.30
2018-07-03T18:50:55.310Z,25.30
2018-07-03T18:53:25.692Z,25.30
2018-07-03T18:55:55.541Z,25.30
2018-07-03T18:58:25.548Z,25.20
2018-07-03T19:00:55.129Z,25.20
2018-07-03T19:03:25.584Z,25.20
2018-07-03T19:05:56.381Z,25.10
2018-07-03T19:08:26.121Z,24.90
2018-07-03T19:10:56.536Z,24.80
2018-07-03T19:13:27.157Z,24.80
2018-07-03T19:15:56.978Z,24.70
2018-07-03T19:18:27.669Z,24.60
2018-07-03T19:20:57.734Z,24.50
2018-07-03T19:23:27.834Z,24.40
2018-07-03T19:25:58.652Z,24.40
2018-07-03T19:28:28.918Z,24.30
2018-07-03T19:30:59.103Z,24.20
2018-07-03T19:33:28.795Z,24.10
2018-07-03T19:36:00.034Z,24.10
2018-07-03T19:38:29.464Z,24.00
2018-07-03T19:41:00.541Z,24.00
2018-07-03T19:43:31.789Z,24.00
2018-07-03T19:46:03.009Z,24.00
2018-07-03T19:48:32.949Z,23.90
2018-07-03T19:51:03.995Z,23.80
2018-07-03T19:53:35.270Z,23.80
2018-07-03T19:56:04.963Z,23.80
2018-07-03T19:58:37.001Z,23.60
2018-07-03T20:01:07.605Z,23.60
2018-07-03T20:03:37.804Z,23.60
2018-07-03T20:06:08.068Z,23.60
2018-07-03T20:08:37.491Z,23.60
2018-07-03T20:11:07.626Z,23.60
2018-07-03T20:13:38.179Z,23.60
2018-07-03T20:16:08.897Z,23.50
2018-07-03T20:18:39.424Z,23.50
2018-07-03T20:21:08.785Z,23.40
2018-07-03T20:23:38.948Z,23.40
2018-07-03T20:26:10.884Z,23.30
2018-07-03T20:28:41.185Z,23.30
2018-07-03T20:31:11.945Z,23.20
2018-07-03T20:33:41.682Z,23.20
2018-07-03T20:36:11.976Z,23.10
2018-07-03T20:38:41.847Z,23.00
2018-07-03T20:41:11.612Z,23.00
2018-07-03T20:43:42.185Z,22.90
2018-07-03T20:46:13.037Z,22.90
2018-07-03T20:48:43.257Z,22.80
2018-07-03T20:51:13.533Z,22.70
2018-07-03T20:53:44.738Z,22.70
2018-07-03T20:56:14.623Z,22.60
2018-07-03T20:58:44.368Z,22.60
2018-07-03T21:01:15.376Z,22.60
2018-07-03T21:03:45.294Z,22.50
2018-07-03T21:06:15.652Z,22.50
2018-07-03T21:08:45.707Z,22.50
2018-07-03T21:11:15.724Z,22.40
2018-07-03T21:13:47.020Z,22.40
2018-07-03T21:16:18.171Z,22.40
2018-07-03T21:18:48.093Z,22.40
2018-07-03T21:21:18.400Z,22.40
2018-07-03T21:23:49.181Z,22.40
2018-07-03T21:26:19.419Z,22.40
2018-07-03T21:28:51.159Z,22.50
2018-07-03T21:31:21.089Z,22.50
2018-07-03T21:33:51.555Z,22.60
2018-07-03T21:36:22.935Z,22.60
2018-07-03T21:38:53.512Z,22.70
2018-07-03T21:41:24.587Z,22.60
2018-07-03T21:43:55.369Z,22.60
2018-07-03T21:46:25.771Z,22.60
2018-07-03T21:48:56.101Z,22.60
2018-07-03T21:51:25.919Z,22.60
2018-07-03T21:53:55.765Z,22.50
2018-07-03T21:56:26.401Z,22.40
2018-07-03T21:58:56.196Z,22.30
2018-07-03T22:01:26.019Z,22.20
2018-07-03T22:03:55.840Z,22.20
2018-07-03T22:06:27.040Z,22.10
2018-07-03T22:08:57.026Z,22.10
2018-07-03T22:11:26.917Z,22.00
2018-07-03T22:13:57.146Z,22.00
2018-07-03T22:16:26.989Z,21.90
2018-07-03T22:18:57.510Z,21.90
2018-07-03T22:21:27.323Z,21.90
2018-07-03T22:23:57.629Z,21.80
2018-07-03T22:26:28.089Z,21.70
2018-07-03T22:28:58.067Z,21.60
2018-07-03T22:31:29.381Z,21.60
2018-07-03T22:33:59.653Z,21.50
2018-07-03T22:36:29.596Z,21.50
2018-07-03T22:38:59.724Z,21.40
2018-07-03T22:41:30.808Z,21.30
2018-07-03T22:44:00.955Z,21.30
2018-07-03T22:46:31.025Z,21.30
2018-07-03T22:49:02.200Z,21.20
2018-07-03T22:51:32.789Z,21.10
2018-07-03T22:54:02.582Z,21.10
2018-07-03T22:56:32.704Z,21.00
2018-07-03T22:59:03.716Z,21.00
2018-07-03T23:01:33.982Z,20.90
2018-07-03T23:04:05.719Z,20.90
2018-07-03T23:06:35.911Z,20.90
2018-07-03T23:09:08.029Z,20.80
2018-07-03T23:11:38.655Z,20.80
2018-07-03T23:14:10.819Z,20.70
2018-07-03T23:16:41.587Z,20.70
2018-07-03T23:19:11.703Z,20.70
2018-07-03T23:21:42.353Z,20.60
2018-07-03T23:24:12.922Z,20.60
2018-07-03T23:26:43.988Z,20.60
2018-07-03T23:29:14.286Z,20.60
2018-07-03T23:31:44.340Z,20.60
2018-07-03T23:34:14.092Z,20.60
2018-07-03T23:36:43.905Z,20.50
2018-07-03T23:39:13.803Z,20.40
2018-07-03T23:41:43.664Z,20.40
2018-07-03T23:44:22.488Z,20.30
2018-07-03T23:47:04.242Z,20.30
2018-07-03T23:49:53.888Z,20.30
2018-07-03T23:52:40.897Z,20.20
2018-07-03T23:55:28.568Z,20.20
2018-07-03T23:58:16.641Z,20.20
